Time;durP1;ratioP1;P1;durP2;ratioP2;P2;SDS_P1;SDS_P2;PMS_P1;PMS_P2;Temp;Humidity;BMP_temperature;BMP_pressure;BME280_temperature;BME280_humidity;BME280_pressure;Samples;Min_cycle;Max_cycle;Signal;HPM_P1;HPM_P2
2021/11/30 00:00:04;;;;;;;36.00;19.30;;;;;;;7.69;83.31;98275.66;5141490;27;20579;-65
2021/11/30 00:02:30;;;;;;;46.88;20.40;;;;;;;7.85;82.45;98287.03;5139222;27;20029;-66
2021/11/30 00:04:55;;;;;;;33.22;19.48;;;;;;;7.77;82.70;98273.94;5138698;27;20035;-63
2021/11/30 00:07:21;;;;;;;40.67;21.08;;;;;;;7.48;83.24;98258.91;5141381;27;20060;-63
2021/11/30 00:12:22;;;;;;;67.47;26.50;;;;;;;7.69;83.62;98264.31;5141252;27;20041;-62
2021/11/30 00:14:50;;;;;;;51.17;23.50;;;;;;;7.67;83.54;98253.13;5124349;27;20035;-63
2021/11/30 00:17:18;;;;;;;61.08;25.25;;;;;;;7.33;84.33;98259.69;5137218;27;20031;-66
2021/11/30 00:19:45;;;;;;;50.58;22.67;;;;;;;7.39;84.36;98250.25;5136985;27;20039;-63
2021/11/30 00:22:15;;;;;;;44.63;22.52;;;;;;;7.43;83.65;98271.78;5138159;27;20321;-66
2021/11/30 00:24:41;;;;;;;41.05;20.85;;;;;;;7.51;84.26;98284.88;5140307;27;20049;-66
2021/11/30 00:27:06;;;;;;;43.00;21.98;;;;;;;7.30;84.80;98293.44;5134740;27;20312;-66
2021/11/30 00:29:34;;;;;;;45.42;21.63;;;;;;;7.46;83.78;98272.25;5139175;27;20023;-64
2021/11/30 00:31:59;;;;;;;40.13;21.60;;;;;;;7.25;84.37;98272.06;5140844;27;20330;-66
2021/11/30 00:34:25;;;;;;;45.92;21.45;;;;;;;7.34;84.92;98274.50;5139048;27;20046;-63
2021/11/30 00:36:51;;;;;;;48.90;23.48;;;;;;;7.43;83.93;98272.59;5120143;27;20317;-63
2021/11/30 00:39:17;;;;;;;46.42;22.23;;;;;;;7.72;82.58;98266.56;5137274;27;20366;-66
2021/11/30 00:41:49;;;;;;;44.58;22.08;;;;;;;7.67;82.96;98264.47;5138352;27;20047;-66
2021/11/30 00:44:16;;;;;;;44.45;21.98;;;;;;;7.72;81.88;98263.94;5140282;27;20367;-65
2021/11/30 00:46:44;;;;;;;47.13;23.83;;;;;;;7.58;82.71;98262.09;5140415;27;20039;-63
2021/11/30 00:49:11;;;;;;;48.58;23.67;;;;;;;7.70;82.24;98271.22;5141303;27;20309;-66
2021/11/30 00:51:39;;;;;;;43.08;22.60;;;;;;;7.80;82.23;98258.59;5140223;27;20055;-63
2021/11/30 00:54:08;;;;;;;38.50;21.95;;;;;;;7.84;81.76;98249.31;5136768;27;20055;-66
2021/11/30 00:56:40;;;;;;;39.72;21.15;;;;;;;7.91;81.41;98246.78;5131126;27;20077;-64
2021/11/30 00:59:05;;;;;;;36.50;19.80;;;;;;;7.86;80.76;98257.03;5140248;27;20046;-65
2021/11/30 01:01:31;;;;;;;40.72;20.13;;;;;;;7.86;82.06;98263.13;5138597;27;20054;-66
2021/11/30 01:03:58;;;;;;;38.45;20.80;;;;;;;8.13;79.41;98245.03;5137328;27;20077;-66
2021/11/30 01:06:24;;;;;;;48.72;21.05;;;;;;;8.03;79.87;98245.31;5140175;27;20035;-64
2021/11/30 01:08:50;;;;;;;33.85;19.63;;;;;;;7.67;81.93;98251.31;5138925;27;20033;-66
2021/11/30 01:11:15;;;;;;;35.55;19.25;;;;;;;7.50;82.93;98249.00;5138634;27;20376;-63
2021/11/30 01:13:40;;;;;;;34.85;19.10;;;;;;;7.56;81.75;98214.88;5135721;27;20015;-63
2021/11/30 01:16:06;;;;;;;37.47;20.58;;;;;;;6.90;84.70;98212.97;5135066;27;21545;-63
2021/11/30 01:18:32;;;;;;;36.13;18.95;;;;;;;6.89;86.41;98209.50;5139485;27;20031;-63
2021/11/30 01:20:58;;;;;;;39.00;18.63;;;;;;;7.39;83.39;98178.34;5136482;27;20039;-66
2021/11/30 01:23:26;;;;;;;54.05;23.13;;;;;;;7.36;83.96;98179.53;5137419;27;20343;-66
2021/11/30 01:25:51;;;;;;;39.88;19.27;;;;;;;7.51;83.36;98167.19;5136963;27;20034;-65
2021/11/30 01:28:20;;;;;;;49.58;20.60;;;;;;;7.69;82.64;98162.38;5136091;27;20031;-63
2021/11/30 01:30:45;;;;;;;34.13;17.63;;;;;;;7.60;81.68;98134.50;5134916;27;20035;-66
2021/11/30 01:33:10;;;;;;;31.75;17.95;;;;;;;6.76;85.83;98121.66;5136486;27;20027;-62
2021/11/30 01:35:36;;;;;;;42.33;21.10;;;;;;;6.04;90.28;98124.56;5137637;27;20098;-65
2021/11/30 01:38:02;;;;;;;41.08;21.75;;;;;;;6.02;91.81;98108.16;5136660;27;20059;-63
2021/11/30 01:40:28;;;;;;;41.47;20.07;;;;;;;6.10;93.47;98102.88;5136891;27;20064;-62
2021/11/30 01:42:57;;;;;;;43.13;20.35;;;;;;;6.60;91.03;98114.72;5134050;27;20254;-66
2021/11/30 01:45:32;;;;;;;41.70;19.60;;;;;;;6.94;89.72;98106.34;5138682;27;20054;-66
2021/11/30 01:50:27;;;;;;;39.42;20.73;;;;;;;7.28;87.28;98082.16;5137299;27;20074;-63
2021/11/30 01:52:52;;;;;;;43.63;19.70;;;;;;;7.33;87.06;98078.00;5136601;27;20214;-63
2021/11/30 01:55:18;;;;;;;44.35;20.35;;;;;;;7.46;86.95;98103.69;5117912;27;20031;-63
2021/11/30 01:57:44;;;;;;;33.97;18.52;;;;;;;7.64;85.75;98111.22;5136640;27;20251;-64
2021/11/30 02:00:12;;;;;;;36.55;19.08;;;;;;;7.39;86.73;98102.78;5135850;27;20240;-63
2021/11/30 02:02:38;;;;;;;36.10;20.23;;;;;;;7.48;87.51;98108.78;5129741;27;20040;-63
2021/11/30 02:05:04;;;;;;;37.28;19.27;;;;;;;7.70;85.85;98092.06;5134468;27;20027;-66
2021/11/30 02:07:29;;;;;;;37.90;18.83;;;;;;;7.80;84.78;98076.78;5136099;27;20080;-66
2021/11/30 02:09:55;;;;;;;34.08;19.77;;;;;;;7.87;84.99;98074.22;5130782;27;20039;-66
2021/11/30 02:12:21;;;;;;;33.75;18.73;;;;;;;7.88;84.23;98066.13;5135702;27;20074;-66
2021/11/30 02:14:46;;;;;;;36.05;19.25;;;;;;;7.89;84.30;98059.84;5137041;27;20030;-63
2021/11/30 02:17:14;;;;;;;39.25;20.60;;;;;;;7.67;84.35;98045.81;5133836;27;20082;-66
2021/11/30 02:19:55;;;;;;;34.72;18.67;;;;;;;7.50;85.77;98059.38;5135972;27;20205;-66
2021/11/30 02:22:21;;;;;;;32.83;18.60;;;;;;;7.51;86.12;98066.28;5135421;27;20027;-66
2021/11/30 02:24:47;;;;;;;34.58;18.70;;;;;;;7.46;86.34;98076.56;5134255;27;20314;-63
2021/11/30 02:27:12;;;;;;;33.72;18.35;;;;;;;7.51;85.94;98077.63;5137079;27;20035;-66
2021/11/30 02:29:38;;;;;;;30.40;17.58;;;;;;;7.39;86.81;98051.94;5136936;27;20027;-64
2021/11/30 02:32:04;;;;;;;31.40;18.02;;;;;;;7.47;86.19;98057.94;5134653;27;20050;-66
2021/11/30 02:34:30;;;;;;;34.40;17.88;;;;;;;7.46;85.90;98055.47;5136086;27;20015;-63
2021/11/30 02:37:03;;;;;;;34.53;18.27;;;;;;;7.60;85.59;98052.00;5130144;27;20039;-63
2021/11/30 02:39:29;;;;;;;36.03;18.35;;;;;;;7.32;86.30;98063.22;5137210;27;20027;-66
2021/11/30 02:41:57;;;;;;;39.38;18.92;;;;;;;7.28;86.67;98045.28;5137220;27;20038;-66
2021/11/30 02:44:24;;;;;;;35.15;17.77;;;;;;;7.28;86.84;98029.50;5137855;27;20023;-63
2021/11/30 02:46:54;;;;;;;39.97;19.92;;;;;;;7.01;87.87;98023.06;5120817;28;20027;-63
2021/11/30 02:49:22;;;;;;;33.50;18.88;;;;;;;6.88;89.07;98033.41;5136688;28;20344;-63
2021/11/30 02:51:51;;;;;;;31.77;18.15;;;;;;;6.87;89.90;98042.28;5138733;28;20042;-66
2021/11/30 02:54:19;;;;;;;33.50;18.17;;;;;;;6.99;88.77;98038.22;5135787;27;20027;-62
2021/11/30 02:56:57;;;;;;;30.52;16.88;;;;;;;7.04;88.83;98036.69;5135273;28;20114;-63
2021/11/30 02:59:24;;;;;;;28.05;15.52;;;;;;;7.25;88.22;98028.06;5133284;28;20332;-63
2021/11/30 03:01:57;;;;;;;30.55;15.68;;;;;;;7.54;85.60;98007.97;5137757;27;20038;-66
2021/11/30 03:04:24;;;;;;;28.30;16.20;;;;;;;7.44;86.81;98003.00;5116984;28;20027;-66
2021/11/30 03:06:51;;;;;;;29.35;14.85;;;;;;;7.11;88.48;98004.38;5135269;28;20453;-65
2021/11/30 03:09:17;;;;;;;31.40;16.38;;;;;;;7.08;88.17;97987.13;5137765;28;20019;-66
2021/11/30 03:11:43;;;;;;;37.05;19.38;;;;;;;7.02;87.98;97985.22;5136427;27;20040;-66
2021/11/30 03:14:09;;;;;;;38.40;18.17;;;;;;;6.85;89.32;97981.97;5136443;28;20050;-63
2021/11/30 03:16:35;;;;;;;33.95;18.65;;;;;;;6.95;88.58;97971.97;5136351;27;20031;-64
2021/11/30 03:19:02;;;;;;;36.63;18.73;;;;;;;7.02;88.69;97969.44;5135678;27;20035;-63
2021/11/30 03:21:27;;;;;;;34.00;18.67;;;;;;;6.89;89.70;97979.78;5137402;28;20034;-65
2021/11/30 03:23:53;;;;;;;32.78;18.92;;;;;;;6.92;90.03;97980.25;5138472;27;20023;-65
2021/11/30 03:26:18;;;;;;;34.08;18.05;;;;;;;6.66;91.17;97969.34;5138826;27;20031;-66
2021/11/30 03:28:44;;;;;;;28.08;16.45;;;;;;;6.65;91.67;97971.16;5141454;27;20027;-66
2021/11/30 03:31:36;;;;;;;28.70;16.20;;;;;;;6.72;91.30;97968.63;5140511;27;20035;-66
2021/11/30 03:34:11;;;;;;;29.95;16.38;;;;;;;6.65;92.02;97967.72;5136906;27;20094;-63
2021/11/30 03:36:38;;;;;;;34.42;16.10;;;;;;;6.62;91.78;97973.34;5136810;27;20265;-63
2021/11/30 03:39:07;;;;;;;28.23;15.35;;;;;;;6.57;92.21;97965.97;5138698;27;20068;-65
2021/11/30 03:41:34;;;;;;;28.85;14.75;;;;;;;6.55;93.31;97967.97;5138707;27;20041;-63
2021/11/30 03:44:00;;;;;;;23.95;13.57;;;;;;;6.57;93.22;97959.91;5141209;27;20031;-62
2021/11/30 03:46:26;;;;;;;24.13;15.02;;;;;;;6.39;95.42;97962.88;5139072;27;20050;-63
2021/11/30 03:48:52;;;;;;;28.60;15.10;;;;;;;6.40;95.50;97956.63;5138211;27;20320;-66
2021/11/30 03:51:18;;;;;;;27.33;15.13;;;;;;;6.51;95.02;97969.34;5139566;27;20041;-66
2021/11/30 03:53:43;;;;;;;26.30;13.00;;;;;;;6.55;94.99;97965.34;5140274;27;20023;-63
2021/11/30 03:56:09;;;;;;;26.23;13.67;;;;;;;6.37;97.31;97960.44;5139253;27;20189;-63
2021/11/30 03:58:35;;;;;;;25.80;15.37;;;;;;;6.46;96.80;97942.75;5136259;27;20070;-66
2021/11/30 04:01:00;;;;;;;25.58;14.40;;;;;;;6.62;96.89;97950.47;5141366;27;20096;-63
2021/11/30 04:03:29;;;;;;;24.42;13.65;;;;;;;6.60;97.39;97951.66;5141837;27;20031;-63
2021/11/30 04:05:55;;;;;;;25.15;13.65;;;;;;;6.44;97.72;97952.66;5138057;27;20039;-65
2021/11/30 04:08:20;;;;;;;22.10;12.50;;;;;;;6.64;98.50;97963.44;5138818;27;20023;-63
2021/11/30 04:10:46;;;;;;;31.70;15.88;;;;;;;6.62;98.23;97950.47;5137282;27;20140;-63
2021/11/30 04:13:11;;;;;;;37.60;16.65;;;;;;;6.65;98.99;97955.38;5136264;27;20084;-63
2021/11/30 04:15:37;;;;;;;33.17;14.05;;;;;;;6.71;98.88;97962.56;5136684;27;20232;-63
2021/11/30 04:18:02;;;;;;;32.22;15.30;;;;;;;6.73;99.51;97970.25;5137374;27;20039;-63
2021/11/30 04:20:28;;;;;;;37.63;15.77;;;;;;;6.89;98.68;97974.53;5140551;27;20072;-63
2021/11/30 04:22:53;;;;;;;28.08;13.68;;;;;;;6.85;99.45;97974.06;5137381;27;20030;-66
2021/11/30 04:25:19;;;;;;;28.15;13.88;;;;;;;6.91;99.42;97985.69;5135838;27;20019;-66
2021/11/30 04:27:45;;;;;;;29.13;12.30;;;;;;;6.93;99.36;97979.25;5138432;27;20161;-65
2021/11/30 04:30:10;;;;;;;24.95;13.63;;;;;;;6.85;100.00;97984.59;5137034;27;20200;-64
2021/11/30 04:32:36;;;;;;;29.25;13.70;;;;;;;6.92;99.58;97989.94;5141675;27;20023;-66
2021/11/30 04:35:02;;;;;;;33.58;14.25;;;;;;;6.87;100.00;97992.31;5139710;27;20370;-63
2021/11/30 04:37:28;;;;;;;30.30;14.27;;;;;;;6.80;100.00;97997.47;5136692;27;20267;-66
2021/11/30 04:39:53;;;;;;;26.20;13.70;;;;;;;6.80;100.00;97997.47;5138661;27;20299;-63
2021/11/30 04:42:21;;;;;;;25.57;13.03;;;;;;;6.71;100.00;98009.88;5138599;27;20039;-65
2021/11/30 04:45:32;;;;;;;28.60;14.63;;;;;;;6.76;100.00;98011.97;5139745;27;20035;-66
2021/11/30 04:47:38;;;;;;;22.98;13.18;;;;;;;6.56;100.00;98002.97;5120192;27;20063;-66
2021/11/30 04:50:11;;;;;;;23.15;14.43;;;;;;;6.73;100.00;98021.06;5136831;27;20072;-65
2021/11/30 04:52:38;;;;;;;27.65;14.45;;;;;;;6.60;100.00;98031.38;5135121;27;20034;-65
2021/11/30 04:55:04;;;;;;;25.98;14.23;;;;;;;6.61;100.00;98040.06;5141992;27;20031;-65
2021/11/30 04:57:30;;;;;;;28.17;15.00;;;;;;;6.70;100.00;98034.56;5138595;27;20042;-63
2021/11/30 04:59:55;;;;;;;25.80;13.63;;;;;;;6.57;100.00;98052.75;5140154;27;20360;-63
2021/11/30 05:02:21;;;;;;;26.38;13.75;;;;;;;6.61;100.00;98061.13;5135722;27;20035;-62
2021/11/30 05:04:47;;;;;;;25.42;15.00;;;;;;;6.51;100.00;98068.44;5138989;27;20023;-63
2021/11/30 05:07:14;;;;;;;27.88;15.73;;;;;;;6.46;100.00;98081.28;5119276;27;20382;-65
2021/11/30 05:09:40;;;;;;;28.05;15.57;;;;;;;6.47;100.00;98078.50;5137641;27;20325;-66
2021/11/30 05:12:06;;;;;;;32.72;15.75;;;;;;;6.34;100.00;98089.59;5137266;27;20023;-63
2021/11/30 05:14:31;;;;;;;29.35;14.95;;;;;;;6.48;100.00;98116.13;5137781;27;20693;-66
2021/11/30 05:16:56;;;;;;;15.30;8.40;;;;;;;6.37;100.00;98119.97;5137740;27;20321;-63
2021/11/30 05:19:22;;;;;;;13.55;4.93;;;;;;;6.27;100.00;98124.63;5138302;27;20023;-65
2021/11/30 05:21:47;;;;;;;11.75;4.93;;;;;;;6.28;100.00;98131.53;5138477;27;20035;-65
2021/11/30 05:24:15;;;;;;;8.23;3.50;;;;;;;6.31;100.00;98144.31;5139363;27;20082;-65
2021/11/30 05:26:41;;;;;;;6.60;2.53;;;;;;;6.12;100.00;98140.31;5135035;27;20051;-62
2021/11/30 05:29:07;;;;;;;8.82;1.83;;;;;;;5.89;100.00;98160.41;5135837;27;20236;-65
2021/11/30 05:31:32;;;;;;;7.13;2.00;;;;;;;5.79;100.00;98163.25;5137553;27;20091;-63
2021/11/30 05:33:59;;;;;;;4.07;1.73;;;;;;;5.62;100.00;98156.41;5136872;27;20055;-65
2021/11/30 05:36:26;;;;;;;2.70;1.60;;;;;;;5.59;100.00;98186.47;5136209;27;20023;-65
2021/11/30 05:38:51;;;;;;;3.80;1.90;;;;;;;5.59;100.00;98194.34;5137718;27;20090;-63
2021/11/30 05:41:17;;;;;;;3.93;1.70;;;;;;;5.66;100.00;98210.25;5137667;27;20080;-63
2021/11/30 05:43:43;;;;;;;3.03;1.50;;;;;;;5.71;100.00;98213.19;5135366;27;20069;-63
2021/11/30 05:46:08;;;;;;;3.37;1.20;;;;;;;5.67;100.00;98219.75;5136663;27;20118;-65
2021/11/30 05:48:34;;;;;;;2.57;1.43;;;;;;;5.64;100.00;98230.59;5138984;27;20035;-66
2021/11/30 05:51:01;;;;;;;4.27;1.87;;;;;;;5.65;100.00;98237.47;5136018;27;20340;-66
2021/11/30 05:53:27;;;;;;;3.13;2.00;;;;;;;5.65;100.00;98240.94;5137150;27;20038;-63
2021/11/30 05:55:55;;;;;;;4.07;1.63;;;;;;;5.57;100.00;98267.19;5136625;27;20221;-63
2021/11/30 05:58:21;;;;;;;5.23;1.17;;;;;;;5.62;100.00;98262.28;5136595;27;20042;-66
2021/11/30 06:00:48;;;;;;;8.27;2.80;;;;;;;5.71;100.00;98279.66;5135231;27;20035;-62
2021/11/30 06:03:31;;;;;;;5.93;2.33;;;;;;;5.74;99.87;98276.69;5137024;27;20229;-63
2021/11/30 06:05:57;;;;;;;5.37;2.87;;;;;;;5.67;99.89;98280.16;5134413;27;20035;-63
2021/11/30 06:08:22;;;;;;;2.20;1.43;;;;;;;5.56;100.00;98286.56;5135717;27;20324;-66
2021/11/30 06:10:48;;;;;;;2.90;1.80;;;;;;;5.71;100.00;98300.66;5132748;27;20037;-65
2021/11/30 06:13:13;;;;;;;13.93;6.10;;;;;;;5.52;99.50;98306.25;5135462;27;20030;-63
2021/11/30 06:15:39;;;;;;;13.30;5.30;;;;;;;5.48;100.00;98319.88;5137207;27;20176;-63
2021/11/30 06:18:04;;;;;;;10.50;4.63;;;;;;;5.50;99.43;98320.53;5117615;27;20101;-62
2021/11/30 06:20:30;;;;;;;13.80;4.23;;;;;;;5.54;99.31;98334.97;5136233;27;20343;-63
2021/11/30 06:22:55;;;;;;;6.07;2.50;;;;;;;5.56;98.45;98338.25;5135321;27;20034;-65
2021/11/30 06:25:21;;;;;;;2.75;1.38;;;;;;;5.54;98.36;98335.81;5135918;27;20054;-63
2021/11/30 06:27:47;;;;;;;2.03;1.50;;;;;;;5.48;98.41;98359.25;5135832;27;20035;-65
2021/11/30 06:30:13;;;;;;;4.20;1.50;;;;;;;5.48;98.50;98365.34;5132525;27;20344;-63
2021/11/30 06:32:39;;;;;;;2.50;1.40;;;;;;;5.42;98.22;98366.81;5136749;27;20038;-63
2021/11/30 06:35:06;;;;;;;2.50;1.40;;;;;;;5.43;97.92;98370.25;5136227;27;20106;-66
2021/11/30 06:37:32;;;;;;;4.30;2.37;;;;;;;5.47;98.15;98378.63;5138955;27;20305;-62
2021/11/30 06:39:58;;;;;;;7.90;1.83;;;;;;;5.50;97.70;98380.91;5135139;27;20102;-62
2021/11/30 06:42:24;;;;;;;3.90;2.10;;;;;;;5.50;97.68;98389.63;5132288;27;20095;-65
2021/11/30 06:44:49;;;;;;;3.77;2.30;;;;;;;5.51;97.62;98385.19;5136270;28;20089;-66
2021/11/30 06:47:15;;;;;;;2.13;1.93;;;;;;;5.63;95.98;98389.97;5136459;28;20348;-66
2021/11/30 06:49:40;;;;;;;1.73;1.30;;;;;;;5.58;94.80;98392.25;5134226;28;20108;-66
2021/11/30 06:52:06;;;;;;;1.87;1.30;;;;;;;5.46;94.62;98396.19;5135732;28;20047;-62
2021/11/30 06:54:32;;;;;;;1.97;1.30;;;;;;;5.51;94.53;98411.44;5136211;28;20076;-65
2021/11/30 06:56:57;;;;;;;3.73;1.27;;;;;;;5.55;94.97;98420.63;5114378;27;20027;-63
2021/11/30 06:59:25;;;;;;;1.73;1.30;;;;;;;5.40;94.63;98423.91;5139606;27;20343;-65
2021/11/30 07:01:50;;;;;;;1.93;1.20;;;;;;;5.52;93.68;98439.34;5134361;27;20081;-62
2021/11/30 07:04:17;;;;;;;1.10;1.00;;;;;;;5.45;92.35;98439.16;5139075;27;20019;-66
2021/11/30 07:14:32;;;;;;;3.03;1.80;;;;;;;5.42;92.36;98461.31;5139046;27;20037;-63
2021/11/30 07:16:59;;;;;;;4.40;2.00;;;;;;;5.34;90.64;98450.78;5136306;27;20027;-65
2021/11/30 07:19:24;;;;;;;4.80;1.50;;;;;;;5.33;90.42;98462.28;5137811;27;20075;-63
2021/11/30 07:21:50;;;;;;;2.33;1.50;;;;;;;5.29;90.32;98460.94;5138291;27;20035;-62
2021/11/30 07:24:16;;;;;;;4.83;1.60;;;;;;;5.27;89.84;98454.22;5139394;27;20039;-66
2021/11/30 07:26:41;;;;;;;6.03;1.80;;;;;;;5.20;89.22;98467.16;5143033;27;20031;-62
2021/11/30 07:29:07;;;;;;;4.60;1.90;;;;;;;5.19;89.24;98457.59;5137673;27;20035;-62
2021/11/30 07:31:34;;;;;;;2.67;1.70;;;;;;;5.21;89.38;98468.78;5132471;27;20051;-65
2021/11/30 07:34:00;;;;;;;3.00;1.90;;;;;;;5.14;88.94;98475.63;5134219;27;20098;-65
2021/11/30 07:36:27;;;;;;;3.00;1.90;;;;;;;5.20;88.54;98468.91;5137268;27;20047;-63
2021/11/30 07:38:52;;;;;;;4.53;1.80;;;;;;;5.17;88.29;98479.75;5138045;27;20046;-62
2021/11/30 07:41:18;;;;;;;1.83;1.40;;;;;;;5.17;87.38;98495.47;5140595;27;20091;-65
2021/11/30 07:43:45;;;;;;;3.50;2.00;;;;;;;5.26;86.92;98498.00;5140266;27;20050;-62
2021/11/30 07:46:11;;;;;;;4.17;2.17;;;;;;;5.22;86.35;98493.25;5121179;27;20019;-63
2021/11/30 07:48:36;;;;;;;3.80;2.30;;;;;;;5.31;86.63;98515.91;5143308;27;20047;-65
2021/11/30 07:51:04;;;;;;;3.33;2.10;;;;;;;5.31;84.93;98510.66;5120521;27;20035;-62
2021/11/30 07:53:29;;;;;;;6.90;3.60;;;;;;;5.35;84.48;98532.97;5141528;27;20079;-62
2021/11/30 07:55:56;;;;;;;4.30;2.70;;;;;;;5.23;85.07;98535.06;5138861;27;20314;-66
2021/11/30 07:58:23;;;;;;;5.57;3.10;;;;;;;5.33;85.98;98550.69;5139893;27;20022;-62
2021/11/30 08:00:50;;;;;;;6.17;3.60;;;;;;;5.34;84.96;98536.59;5139558;27;20039;-65
2021/11/30 08:03:16;;;;;;;4.67;3.50;;;;;;;5.33;85.32;98542.81;5140432;27;20057;-66
2021/11/30 08:05:43;;;;;;;4.40;2.70;;;;;;;5.28;83.82;98551.16;5139510;27;20039;-65
2021/11/30 08:08:09;;;;;;;4.80;3.10;;;;;;;5.34;84.12;98560.22;5140556;27;20327;-65
2021/11/30 08:10:34;;;;;;;4.07;3.17;;;;;;;5.30;84.56;98553.63;5139339;27;20031;-63
2021/11/30 08:13:00;;;;;;;4.40;2.60;;;;;;;5.28;83.71;98572.16;5140032;27;20019;-63
2021/11/30 08:15:26;;;;;;;4.67;3.47;;;;;;;5.08;84.52;98552.34;5139796;27;20107;-63
2021/11/30 08:17:52;;;;;;;4.53;2.10;;;;;;;5.16;82.73;98583.06;5141594;27;20367;-62
2021/11/30 08:20:18;;;;;;;5.80;3.13;;;;;;;5.10;83.38;98580.06;5139438;27;20051;-62
2021/11/30 08:22:44;;;;;;;3.80;2.53;;;;;;;5.14;82.80;98599.78;5139505;27;20035;-62
2021/11/30 08:25:11;;;;;;;6.27;3.53;;;;;;;5.23;83.27;98605.94;5140879;27;20047;-62
2021/11/30 08:27:38;;;;;;;3.87;3.00;;;;;;;5.05;82.16;98610.38;5137634;27;20260;-63
2021/11/30 08:30:05;;;;;;;3.60;2.70;;;;;;;5.16;81.96;98625.88;5138548;27;20050;-66
2021/11/30 08:32:31;;;;;;;3.50;2.10;;;;;;;5.14;81.24;98612.06;5137260;27;20228;-65
2021/11/30 08:34:57;;;;;;;5.87;2.67;;;;;;;5.16;81.67;98627.66;5132934;27;20027;-62
2021/11/30 08:37:24;;;;;;;4.10;2.77;;;;;;;5.21;81.59;98623.63;5138016;27;20055;-65
2021/11/30 08:39:52;;;;;;;4.10;2.83;;;;;;;5.12;81.32;98614.03;5140065;27;20210;-62
2021/11/30 08:42:19;;;;;;;3.47;2.60;;;;;;;5.17;81.23;98626.69;5118274;27;20049;-66
2021/11/30 08:44:45;;;;;;;4.23;3.17;;;;;;;5.13;81.55;98634.03;5119916;27;20031;-62
2021/11/30 08:47:14;;;;;;;4.50;3.17;;;;;;;5.21;80.84;98647.25;5138519;27;20039;-63
2021/11/30 08:49:40;;;;;;;5.10;2.73;;;;;;;5.27;80.51;98659.75;5138132;27;20026;-65
2021/11/30 08:52:08;;;;;;;5.37;3.20;;;;;;;5.16;80.17;98652.09;5138699;27;20071;-65
2021/11/30 08:54:34;;;;;;;3.57;2.57;;;;;;;5.23;80.19;98665.47;5137648;27;20098;-65
2021/11/30 08:57:01;;;;;;;4.07;2.43;;;;;;;5.28;80.30;98674.53;5139757;27;20239;-65
2021/11/30 08:59:27;;;;;;;7.87;3.00;;;;;;;5.32;79.90;98682.91;5138660;27;20038;-65
2021/11/30 09:01:53;;;;;;;3.97;2.63;;;;;;;5.43;80.02;98685.28;5139287;27;20029;-65
2021/11/30 09:04:19;;;;;;;6.57;2.93;;;;;;;5.38;79.09;98690.16;5139822;27;20060;-63
2021/11/30 09:06:44;;;;;;;4.50;3.20;;;;;;;5.42;79.48;98702.00;5137513;27;20221;-65
2021/11/30 09:09:10;;;;;;;5.20;3.30;;;;;;;5.51;79.19;98697.63;5138981;27;20039;-65
2021/11/30 09:11:37;;;;;;;4.70;2.70;;;;;;;5.34;77.56;98688.84;5137266;27;20291;-65
2021/11/30 09:14:06;;;;;;;8.30;3.17;;;;;;;5.36;78.08;98703.44;5137174;27;20095;-66
2021/11/30 09:16:31;;;;;;;6.27;3.30;;;;;;;5.46;79.09;98708.59;5137566;27;20220;-65
2021/11/30 09:18:58;;;;;;;6.73;2.93;;;;;;;5.49;77.45;98692.53;5137268;27;20046;-65
2021/11/30 09:21:24;;;;;;;4.90;3.37;;;;;;;5.43;76.88;98706.28;5136163;27;20035;-63
2021/11/30 09:23:50;;;;;;;6.50;4.00;;;;;;;5.45;77.75;98704.31;5138850;27;20034;-62
2021/11/30 09:26:16;;;;;;;7.60;3.60;;;;;;;5.43;76.21;98707.09;5137654;27;20046;-66
2021/11/30 09:28:42;;;;;;;8.33;4.50;;;;;;;5.53;75.96;98701.75;5137074;27;20038;-65
2021/11/30 09:31:08;;;;;;;5.17;3.60;;;;;;;5.47;75.30;98714.66;5139306;27;20122;-65
2021/11/30 09:33:38;;;;;;;6.50;4.20;;;;;;;5.45;76.41;98712.19;5138190;27;20099;-62
2021/11/30 09:36:04;;;;;;;8.60;4.90;;;;;;;5.45;76.43;98714.81;5136808;27;20188;-65
2021/11/30 09:38:30;;;;;;;7.57;4.03;;;;;;;5.44;75.60;98703.50;5136692;27;20015;-65
2021/11/30 09:40:58;;;;;;;7.87;4.17;;;;;;;5.39;75.22;98728.56;5139283;27;20027;-65
2021/11/30 09:43:25;;;;;;;7.83;3.77;;;;;;;5.32;75.13;98720.47;5137191;27;20103;-65
2021/11/30 09:45:54;;;;;;;7.43;4.60;;;;;;;5.33;76.21;98723.94;5137956;27;20035;-63
2021/11/30 09:48:21;;;;;;;8.53;5.43;;;;;;;5.28;76.26;98723.56;5137812;27;20049;-62
2021/11/30 09:50:47;;;;;;;9.10;4.77;;;;;;;5.50;76.05;98735.38;5136617;27;20069;-62
2021/11/30 09:53:14;;;;;;;7.70;4.87;;;;;;;5.51;74.72;98737.00;5138541;27;20320;-62
2021/11/30 09:55:41;;;;;;;9.33;4.13;;;;;;;5.52;73.55;98738.66;5119652;27;20209;-63
2021/11/30 09:58:07;;;;;;;7.77;4.43;;;;;;;5.47;75.11;98761.94;5137250;27;20307;-65
2021/11/30 10:00:34;;;;;;;11.23;5.43;;;;;;;5.47;75.08;98760.13;5118193;27;20235;-62
2021/11/30 10:03:01;;;;;;;9.03;5.20;;;;;;;5.54;74.52;98773.47;5135907;27;20317;-62
2021/11/30 10:05:27;;;;;;;8.27;5.50;;;;;;;5.52;74.31;98771.00;5141970;27;20046;-62
2021/11/30 10:07:55;;;;;;;9.60;6.13;;;;;;;5.51;73.29;98764.09;5138558;27;20108;-63
2021/11/30 10:10:24;;;;;;;10.77;5.50;;;;;;;5.50;73.75;98778.19;5137212;27;20079;-63
2021/11/30 10:13:05;;;;;;;9.33;5.40;;;;;;;5.44;74.02;98773.56;5136482;27;20190;-62
2021/11/30 10:15:49;;;;;;;12.20;6.80;;;;;;;5.49;73.33;98784.44;5120215;27;20106;-65
2021/11/30 10:18:25;;;;;;;10.32;6.15;;;;;;;5.44;73.10;98782.25;5137979;27;20494;-65
2021/11/30 10:20:56;;;;;;;13.70;6.63;;;;;;;5.35;73.38;98791.06;5135939;27;20051;-65
2021/11/30 10:23:24;;;;;;;10.67;5.80;;;;;;;5.36;72.81;98779.56;5137665;27;20256;-65
2021/11/30 10:25:51;;;;;;;12.37;6.70;;;;;;;5.36;73.41;98786.63;5137522;27;20030;-62
2021/11/30 10:28:23;;;;;;;13.70;6.83;;;;;;;5.29;72.59;98778.53;5137215;27;20107;-65
2021/11/30 10:30:51;;;;;;;16.23;7.83;;;;;;;5.28;71.63;98794.44;5136838;27;20101;-62
2021/11/30 10:33:19;;;;;;;13.93;8.07;;;;;;;5.41;73.46;98810.63;5136425;27;20084;-63
2021/11/30 10:35:50;;;;;;;11.87;6.13;;;;;;;5.47;71.85;98819.69;5137492;27;20318;-63
2021/11/30 10:38:16;;;;;;;11.03;6.63;;;;;;;5.47;72.04;98824.94;5136917;27;20270;-63
2021/11/30 10:40:41;;;;;;;12.10;7.80;;;;;;;5.41;72.92;98832.44;5137362;27;20034;-65
2021/11/30 10:43:10;;;;;;;11.13;7.13;;;;;;;5.43;71.76;98827.03;5138868;27;20039;-63
2021/11/30 10:45:47;;;;;;;14.20;7.37;;;;;;;5.43;71.82;98827.88;5139318;27;20046;-62
2021/11/30 10:48:20;;;;;;;12.80;6.33;;;;;;;5.50;70.96;98827.25;5135848;27;20059;-65
2021/11/30 10:50:49;;;;;;;9.55;6.75;;;;;;;5.49;70.89;98839.56;5138257;27;20047;-65
2021/11/30 10:53:31;;;;;;;9.70;6.23;;;;;;;5.42;70.48;98838.53;5136993;27;20058;-65
2021/11/30 10:56:04;;;;;;;12.63;6.60;;;;;;;5.42;70.30;98835.91;5136374;27;20064;-62
2021/11/30 10:58:32;;;;;;;13.05;7.20;;;;;;;5.57;71.58;98837.00;5137774;27;20072;-65
2021/11/30 11:00:59;;;;;;;13.53;7.63;;;;;;;5.56;71.42;98851.09;5136427;27;20039;-65
2021/11/30 11:03:25;;;;;;;17.97;8.73;;;;;;;5.60;71.41;98833.25;5135820;27;20035;-63
2021/11/30 11:08:49;;;;;;;11.87;7.20;;;;;;;5.66;70.59;98851.03;5136055;27;20381;-63
2021/11/30 11:11:17;;;;;;;12.82;6.93;;;;;;;5.51;70.62;98849.91;5137313;27;20023;-63
2021/11/30 11:13:43;;;;;;;18.93;6.97;;;;;;;5.38;68.81;98855.56;5137387;27;20106;-65
2021/11/30 11:16:26;;;;;;;10.93;6.57;;;;;;;5.38;68.32;98866.06;5135734;27;20085;-62
2021/11/30 11:18:54;;;;;;;12.70;7.83;;;;;;;5.43;69.01;98867.25;5138534;27;20328;-65
2021/11/30 11:21:24;;;;;;;12.80;6.70;;;;;;;5.32;69.25;98874.53;5141983;27;20042;-63
2021/11/30 11:24:08;;;;;;;15.57;6.83;;;;;;;5.38;68.69;98877.38;5142012;27;20039;-62
2021/11/30 11:26:39;;;;;;;10.40;6.60;;;;;;;5.33;69.01;98879.63;5142245;27;20038;-62
2021/11/30 11:29:20;;;;;;;13.67;7.00;;;;;;;5.33;69.17;98887.50;5142535;27;20031;-65
2021/11/30 11:31:59;;;;;;;12.73;6.10;;;;;;;5.27;68.52;98884.66;5141818;27;20035;-62
2021/11/30 11:34:27;;;;;;;10.97;7.27;;;;;;;5.36;68.46;98905.59;5141933;27;20095;-63
2021/11/30 11:36:54;;;;;;;10.77;6.50;;;;;;;5.44;68.64;98910.91;5123143;27;20232;-62
2021/11/30 11:39:22;;;;;;;10.57;6.33;;;;;;;5.34;68.10;98896.19;5141868;27;20023;-65
2021/11/30 11:41:51;;;;;;;11.70;7.37;;;;;;;5.31;67.58;98914.88;5141563;27;20035;-63
2021/11/30 11:44:17;;;;;;;12.33;6.90;;;;;;;5.20;68.38;98902.78;5143651;27;20033;-62
2021/11/30 11:46:45;;;;;;;13.03;6.17;;;;;;;5.34;68.49;98917.19;5146005;27;20233;-65